Time;durP1;ratioP1;P1;durP2;ratioP2;P2;SDS_P1;SDS_P2;PMS_P1;PMS_P2;Temp;Humidity;BMP_temperature;BMP_pressure;BME280_temperature;BME280_humidity;BME280_pressure;Samples;Min_cycle;Max_cycle;Signal;HPM_P1;HPM_P2
2021/04/16 00:01:53;;;;;;;2.83;2.10;;;;;;;;;;5010465;28;20165;-86
2021/04/16 00:04:19;;;;;;;3.25;2.22;;;;;;;;;;5011023;28;20176;-87
2021/04/16 00:06:45;;;;;;;4.72;3.10;;;;;;;;;;4994984;28;20336;-84
2021/04/16 00:09:11;;;;;;;4.80;2.90;;;;;;;;;;4988271;28;20165;-84
2021/04/16 00:11:37;;;;;;;5.45;2.30;;;;;;;;;;4984802;28;20255;-84
2021/04/16 00:14:04;;;;;;;2.30;1.92;;;;;;;;;;4984580;28;20177;-85
2021/04/16 00:16:37;;;;;;;5.60;2.40;;;;;;;;;;4992061;28;20661;-83
2021/04/16 00:19:03;;;;;;;3.28;2.28;;;;;;;;;;5000948;28;20172;-85
2021/04/16 00:21:30;;;;;;;2.95;2.75;;;;;;;;;;4990784;28;20212;-85
2021/04/16 00:23:56;;;;;;;3.70;2.08;;;;;;;;;;4983291;28;20157;-85
2021/04/16 00:26:22;;;;;;;4.47;2.40;;;;;;;;;;4995316;28;20200;-85
2021/04/16 00:28:48;;;;;;;3.63;2.70;;;;;;;;;;5000671;28;20169;-84
2021/04/16 00:31:19;;;;;;;3.05;2.75;;;;;;;;;;5006357;28;20173;-84
2021/04/16 00:33:45;;;;;;;2.22;1.98;;;;;;;;;;5017641;28;20161;-86
2021/04/16 00:36:11;;;;;;;4.80;2.67;;;;;;;;;;5007270;28;20306;-84
2021/04/16 00:38:38;;;;;;;2.25;1.83;;;;;;;;;;5002488;28;20165;-84
2021/04/16 00:41:06;;;;;;;3.53;1.73;;;;;;;;;;5005518;28;20219;-85
2021/04/16 00:43:36;;;;;;;3.05;2.42;;;;;;;;;;4984436;28;20232;-85
2021/04/16 00:46:21;;;;;;;2.30;2.03;;;;;;;;;;4986584;28;20219;-86
2021/04/16 00:48:55;;;;;;;2.75;2.20;;;;;;;;;;4992569;28;20173;-86
2021/04/16 00:51:26;;;;;;;2.60;2.05;;;;;;;;;;5006566;28;20172;-86
2021/04/16 00:53:52;;;;;;;5.57;2.40;;;;;;;;;;5006703;28;20212;-85
2021/04/16 00:56:19;;;;;;;3.67;2.42;;;;;;;;;;5006516;28;20224;-84
2021/04/16 00:58:45;;;;;;;4.38;2.25;;;;;;;;;;5003014;28;20237;-86
2021/04/16 01:01:11;;;;;;;5.72;2.30;;;;;;;;;;4986709;28;20200;-85
2021/04/16 01:03:37;;;;;;;2.55;2.35;;;;;;;;;;4990224;28;20157;-84
2021/04/16 01:06:06;;;;;;;4.80;1.88;;;;;;;;;;4990119;28;20185;-86
2021/04/16 01:08:33;;;;;;;1.83;1.45;;;;;;;;;;4991671;28;20189;-85
2021/04/16 01:10:59;;;;;;;2.13;1.98;;;;;;;;;;5006827;28;20656;-86
2021/04/16 01:13:26;;;;;;;3.50;1.80;;;;;;;;;;5005467;28;20191;-84
2021/04/16 01:16:00;;;;;;;2.95;2.20;;;;;;;;;;4999559;28;20226;-83
2021/04/16 01:18:28;;;;;;;3.30;1.48;;;;;;;;;;5018392;28;20203;-85
2021/04/16 01:20:56;;;;;;;3.40;2.33;;;;;;;;;;4988180;28;20204;-85
2021/04/16 01:23:41;;;;;;;2.70;2.13;;;;;;;;;;4988130;28;20180;-85
2021/04/16 01:26:08;;;;;;;2.50;1.60;;;;;;;;;;4988592;28;20216;-86
2021/04/16 01:28:34;;;;;;;3.60;2.08;;;;;;;;;;4989386;28;20177;-85
2021/04/16 01:31:01;;;;;;;1.60;1.50;;;;;;;;;;5009603;28;20173;-85
2021/04/16 01:33:29;;;;;;;2.55;1.85;;;;;;;;;;5008512;28;20172;-85
2021/04/16 01:35:56;;;;;;;2.88;1.77;;;;;;;;;;4992621;28;20194;-85
2021/04/16 01:38:22;;;;;;;1.85;1.60;;;;;;;;;;5006473;28;20181;-83
2021/04/16 01:40:48;;;;;;;2.15;1.63;;;;;;;;;;5015656;28;20223;-84
2021/04/16 01:43:16;;;;;;;7.18;2.08;;;;;;;;;;4995303;28;20170;-86
2021/04/16 01:45:42;;;;;;;3.05;2.00;;;;;;;;;;4986660;28;20208;-85
2021/04/16 01:48:08;;;;;;;3.80;2.10;;;;;;;;;;4968276;28;20170;-86
2021/04/16 01:50:34;;;;;;;1.90;1.67;;;;;;;;;;5004100;28;20176;-86
2021/04/16 01:53:01;;;;;;;1.70;1.40;;;;;;;;;;5003160;28;20169;-85
2021/04/16 01:55:28;;;;;;;1.60;1.50;;;;;;;;;;5005285;28;20536;-86
2021/04/16 01:57:54;;;;;;;3.38;2.08;;;;;;;;;;5002531;28;20176;-85
2021/04/16 02:00:24;;;;;;;2.17;1.60;;;;;;;;;;4986345;28;20224;-83
2021/04/16 02:02:50;;;;;;;2.83;2.45;;;;;;;;;;4987429;28;20161;-86
2021/04/16 02:05:16;;;;;;;1.70;1.38;;;;;;;;;;4973179;28;20197;-86
2021/04/16 02:07:42;;;;;;;2.90;1.55;;;;;;;;;;4988453;28;20177;-85
2021/04/16 02:10:10;;;;;;;2.13;1.85;;;;;;;;;;5010723;28;20173;-84
2021/04/16 02:12:36;;;;;;;2.55;1.60;;;;;;;;;;5019293;28;20157;-84
2021/04/16 02:15:03;;;;;;;1.88;1.73;;;;;;;;;;5019946;28;20215;-83
2021/04/16 02:17:29;;;;;;;2.53;1.48;;;;;;;;;;5019217;28;20221;-84
2021/04/16 02:19:57;;;;;;;3.17;1.67;;;;;;;;;;5016607;28;20645;-86
2021/04/16 02:22:24;;;;;;;5.38;1.77;;;;;;;;;;5009895;28;20176;-86
2021/04/16 02:24:51;;;;;;;3.28;2.10;;;;;;;;;;5007264;28;20177;-84
2021/04/16 02:27:19;;;;;;;11.57;2.95;;;;;;;;;;5006562;28;20165;-84
2021/04/16 02:29:45;;;;;;;1.58;1.20;;;;;;;;;;5004751;28;20594;-86
2021/04/16 02:32:11;;;;;;;2.40;1.92;;;;;;;;;;5004277;28;20196;-86
2021/04/16 02:34:38;;;;;;;4.68;1.33;;;;;;;;;;5006003;28;20165;-85
2021/04/16 02:37:07;;;;;;;1.85;1.67;;;;;;;;;;5004396;28;20168;-85
2021/04/16 02:39:34;;;;;;;1.20;1.00;;;;;;;;;;4998162;28;20653;-85
2021/04/16 02:42:00;;;;;;;2.30;1.20;;;;;;;;;;5004341;28;20236;-85
2021/04/16 02:44:27;;;;;;;2.17;1.55;;;;;;;;;;5007394;28;20228;-83
2021/04/16 02:46:55;;;;;;;3.05;1.80;;;;;;;;;;4998262;28;20759;-85
2021/04/16 02:49:28;;;;;;;3.00;1.45;;;;;;;;;;5006097;28;20192;-84
2021/04/16 02:51:59;;;;;;;2.92;1.95;;;;;;;;;;5009341;28;20232;-84
2021/04/16 02:54:28;;;;;;;3.58;1.95;;;;;;;;;;5010865;28;20175;-85
2021/04/16 02:57:00;;;;;;;2.67;1.58;;;;;;;;;;5011717;28;20287;-85
2021/04/16 02:59:31;;;;;;;1.67;1.20;;;;;;;;;;5010923;28;20606;-86
2021/04/16 03:01:58;;;;;;;2.85;1.60;;;;;;;;;;5009381;28;20173;-85
2021/04/16 03:04:24;;;;;;;2.00;1.80;;;;;;;;;;5008248;28;20169;-86
2021/04/16 03:06:50;;;;;;;4.38;1.70;;;;;;;;;;5007500;28;20193;-84
2021/04/16 03:09:16;;;;;;;2.25;2.05;;;;;;;;;;5006334;28;20168;-86
2021/04/16 03:11:43;;;;;;;1.70;1.50;;;;;;;;;;4993344;28;20180;-86
2021/04/16 03:14:09;;;;;;;5.68;1.75;;;;;;;;;;4986611;28;20267;-87
2021/04/16 03:16:35;;;;;;;4.13;1.50;;;;;;;;;;4988357;28;20197;-83
2021/04/16 03:19:02;;;;;;;1.77;1.65;;;;;;;;;;4995539;28;20173;-82
2021/04/16 03:21:28;;;;;;;2.30;2.10;;;;;;;;;;5006509;28;20196;-86
2021/04/16 03:23:55;;;;;;;2.00;1.70;;;;;;;;;;5015615;28;20183;-84
2021/04/16 03:26:22;;;;;;;2.55;1.35;;;;;;;;;;5016633;28;20600;-82
2021/04/16 03:28:52;;;;;;;4.93;4.13;;;;;;;;;;5015306;28;20168;-85
2021/04/16 03:31:18;;;;;;;3.47;2.17;;;;;;;;;;4996469;28;20239;-84
2021/04/16 03:33:44;;;;;;;7.50;2.20;;;;;;;;;;4996822;28;20165;-84
2021/04/16 03:36:10;;;;;;;2.67;1.60;;;;;;;;;;4997721;28;20431;-85
2021/04/16 03:38:36;;;;;;;7.65;2.30;;;;;;;;;;4997382;28;20405;-83
2021/04/16 03:41:02;;;;;;;4.85;3.03;;;;;;;;;;5014655;28;20239;-85
2021/04/16 03:43:28;;;;;;;4.40;2.17;;;;;;;;;;5014233;28;20172;-85
2021/04/16 03:45:54;;;;;;;4.60;2.25;;;;;;;;;;5010658;28;20264;-86
2021/04/16 03:48:20;;;;;;;5.30;1.80;;;;;;;;;;5009550;28;20161;-85
2021/04/16 03:50:46;;;;;;;6.78;1.80;;;;;;;;;;4991500;28;20479;-84
2021/04/16 03:53:12;;;;;;;3.35;1.75;;;;;;;;;;4997465;28;20176;-84
2021/04/16 03:55:40;;;;;;;3.75;1.80;;;;;;;;;;4998391;28;20189;-85
2021/04/16 03:58:06;;;;;;;2.00;1.80;;;;;;;;;;5014675;28;20184;-84
2021/04/16 04:00:34;;;;;;;1.90;1.80;;;;;;;;;;5009741;28;20207;-85
2021/04/16 04:03:00;;;;;;;5.72;1.67;;;;;;;;;;5004370;28;20195;-84
2021/04/16 04:05:27;;;;;;;2.45;1.65;;;;;;;;;;5002748;28;20200;-84
2021/04/16 04:07:53;;;;;;;3.92;2.13;;;;;;;;;;5003199;28;20177;-85
2021/04/16 04:10:21;;;;;;;2.00;1.85;;;;;;;;;;5003829;28;20177;-86
2021/04/16 04:12:48;;;;;;;3.15;2.22;;;;;;;;;;5005099;28;20204;-85
2021/04/16 04:15:15;;;;;;;5.97;3.70;;;;;;;;;;4997492;28;20198;-85
2021/04/16 04:17:41;;;;;;;4.75;2.00;;;;;;;;;;4983942;28;20196;-86
2021/04/16 04:20:15;;;;;;;5.85;1.95;;;;;;;;;;4986027;28;20340;-85
2021/04/16 04:22:41;;;;;;;2.28;1.83;;;;;;;;;;4990699;28;20633;-84
2021/04/16 04:25:08;;;;;;;3.15;1.85;;;;;;;;;;4988539;28;20277;-85
2021/04/16 04:27:34;;;;;;;2.13;1.42;;;;;;;;;;4987754;28;20177;-87
2021/04/16 04:30:00;;;;;;;6.13;2.30;;;;;;;;;;4988347;28;20177;-85
2021/04/16 04:32:26;;;;;;;3.75;2.08;;;;;;;;;;4987584;28;20218;-86
2021/04/16 04:34:52;;;;;;;4.68;1.67;;;;;;;;;;4987670;28;20174;-86
2021/04/16 04:37:19;;;;;;;3.92;1.60;;;;;;;;;;4988784;28;20223;-86
2021/04/16 04:39:45;;;;;;;3.45;1.60;;;;;;;;;;4991439;28;20249;-86
2021/04/16 04:42:12;;;;;;;4.15;2.35;;;;;;;;;;4992762;28;20574;-85
2021/04/16 04:44:38;;;;;;;3.25;1.95;;;;;;;;;;5012260;28;20191;-85
2021/04/16 04:47:05;;;;;;;5.22;2.45;;;;;;;;;;5009134;28;20540;-86
2021/04/16 04:49:32;;;;;;;2.90;2.10;;;;;;;;;;5001243;28;20172;-85
2021/04/16 04:52:09;;;;;;;2.65;2.13;;;;;;;;;;4989122;28;20173;-86
2021/04/16 04:54:35;;;;;;;5.32;2.00;;;;;;;;;;4985971;28;20169;-87
2021/04/16 04:57:01;;;;;;;11.80;1.92;;;;;;;;;;4993449;28;20189;-85
2021/04/16 04:59:27;;;;;;;1.90;1.70;;;;;;;;;;5008719;28;20192;-84
2021/04/16 05:01:53;;;;;;;5.07;1.80;;;;;;;;;;5009817;28;20231;-86
2021/04/16 05:04:19;;;;;;;3.05;2.40;;;;;;;;;;5007022;28;20180;-86
2021/04/16 05:06:45;;;;;;;1.98;1.88;;;;;;;;;;5007581;28;20220;-86
2021/04/16 05:09:11;;;;;;;4.32;1.77;;;;;;;;;;5008898;28;20245;-86
2021/04/16 05:11:37;;;;;;;7.00;2.15;;;;;;;;;;5007365;28;20180;-86
2021/04/16 05:14:03;;;;;;;4.30;2.20;;;;;;;;;;5011828;28;20255;-87
2021/04/16 05:16:29;;;;;;;4.72;2.42;;;;;;;;;;5006800;28;21011;-87
2021/04/16 05:18:57;;;;;;;3.78;2.20;;;;;;;;;;5007077;28;20199;-86
2021/04/16 05:25:21;;;;;;;2.83;1.83;;;;;;;;;;5008131;28;20611;-86
2021/04/16 05:27:48;;;;;;;3.20;1.55;;;;;;;;;;5010906;28;20164;-84
2021/04/16 05:30:14;;;;;;;4.72;2.30;;;;;;;;;;5016923;28;20173;-84
2021/04/16 05:32:40;;;;;;;4.07;2.53;;;;;;;;;;5019529;28;20228;-84
2021/04/16 05:35:09;;;;;;;10.43;3.10;;;;;;;;;;5019869;28;20187;-86
2021/04/16 05:37:37;;;;;;;5.43;3.25;;;;;;;;;;5023274;28;20187;-85
2021/04/16 05:40:04;;;;;;;3.33;1.75;;;;;;;;;;5000381;28;20215;-86
2021/04/16 05:42:30;;;;;;;9.60;3.08;;;;;;;;;;5019594;28;20168;-87
2021/04/16 05:44:59;;;;;;;3.80;2.30;;;;;;;;;;5018285;28;20172;-86
2021/04/16 05:47:25;;;;;;;5.32;3.55;;;;;;;;;;5015147;28;20177;-85
2021/04/16 05:49:51;;;;;;;6.32;2.53;;;;;;;;;;5008302;28;20173;-87
2021/04/16 05:52:18;;;;;;;3.45;3.13;;;;;;;;;;5014713;28;20168;-86
2021/04/16 05:54:44;;;;;;;3.13;2.72;;;;;;;;;;5025959;28;20215;-85
2021/04/16 05:57:10;;;;;;;4.35;3.00;;;;;;;;;;5017648;28;20172;-87
2021/04/16 05:59:38;;;;;;;7.03;2.88;;;;;;;;;;5027147;28;20172;-87
2021/04/16 06:02:22;;;;;;;3.03;2.75;;;;;;;;;;5033355;28;20160;-86
2021/04/16 06:04:48;;;;;;;8.57;2.25;;;;;;;;;;5023243;28;20157;-86
2021/04/16 06:07:14;;;;;;;4.95;3.53;;;;;;;;;;5029376;28;20161;-85
2021/04/16 06:09:42;;;;;;;5.30;2.13;;;;;;;;;;5025562;28;20164;-85
2021/04/16 06:12:12;;;;;;;3.80;1.85;;;;;;;;;;5025708;28;20156;-85
2021/04/16 06:14:40;;;;;;;3.05;1.60;;;;;;;;;;5030414;28;20206;-83
2021/04/16 06:17:10;;;;;;;2.45;1.75;;;;;;;;;;5017304;28;20275;-86
2021/04/16 06:19:42;;;;;;;3.60;2.30;;;;;;;;;;5016023;28;20176;-86
2021/04/16 06:22:08;;;;;;;8.43;2.15;;;;;;;;;;5013673;28;20172;-86
2021/04/16 06:24:35;;;;;;;6.25;2.22;;;;;;;;;;5015041;28;20173;-86
2021/04/16 06:27:04;;;;;;;6.22;2.90;;;;;;;;;;5015207;28;20145;-85
2021/04/16 06:29:34;;;;;;;5.03;1.98;;;;;;;;;;5015305;28;20165;-85
2021/04/16 06:32:00;;;;;;;4.10;2.05;;;;;;;;;;5012945;28;20200;-84
2021/04/16 06:34:32;;;;;;;3.20;2.05;;;;;;;;;;5011512;28;20192;-89
2021/04/16 06:37:37;;;;;;;;;;;;;;;;;;;;;
2021/04/16 06:40:17;;;;;;;3.30;1.55;;;;;;;;;;4967224;28;20210;-88
2021/04/16 06:42:49;;;;;;;5.28;2.40;;;;;;;;;;5010174;28;20531;-84
2021/04/16 06:45:17;;;;;;;5.45;4.28;;;;;;;;;;5006644;28;20185;-87
2021/04/16 06:47:50;;;;;;;6.47;3.15;;;;;;;;;;5001627;28;20184;-84
2021/04/16 06:50:17;;;;;;;2.90;2.00;;;2.60;99.90;;;;;;4999932;28;20260;-82
2021/04/16 06:52:49;;;;;;;2.22;1.98;;;6.50;99.90;;;;;;5003260;28;20263;-85
2021/04/16 06:55:30;;;;;;;2.60;2.38;;;6.70;99.90;;;;;;4984917;28;20282;-84
2021/04/16 06:58:17;;;;;;;4.57;2.70;;;7.20;99.90;;;;;;5003520;28;20157;-85
2021/04/16 07:00:49;;;;;;;4.68;2.00;;;7.20;99.90;;;;;;5002417;28;20475;-83
2021/04/16 07:03:24;;;;;;;3.05;1.70;;;6.90;99.90;;;;;;5002369;28;20169;-83
2021/04/16 07:05:51;;;;;;;4.43;2.05;;;6.60;99.90;;;;;;4990608;28;20213;-84
2021/04/16 07:08:40;;;;;;;5.82;2.45;;;6.30;99.90;;;;;;5007319;28;20183;-84
2021/04/16 07:11:42;;;;;;;2.30;1.45;;;6.20;99.90;;;;;;5008588;28;20211;-85
2021/04/16 07:14:27;;;;;;;7.22;3.80;;;6.30;99.90;;;;;;5017215;28;20149;-87
2021/04/16 07:16:56;;;;;;;2.95;2.30;;;6.60;99.90;;;;;;5048588;23;20232;-86
2021/04/16 07:19:47;;;;;;;3.60;2.38;;;;;;;;;;4996212;28;20238;-84
2021/04/16 07:22:19;;;;;;;6.47;3.75;;;;;;;;;;4985210;28;20196;-85
2021/04/16 07:24:51;;;;;;;4.95;2.00;;;;;;;;;;4985565;28;20153;-84
2021/04/16 07:27:22;;;;;;;2.95;1.92;;;;;;;;;;5028112;23;20213;-80
